createdAt,value
2018-04-15T00:02:17.132Z,14.50
2018-04-15T00:07:20.217Z,14.40
2018-04-15T00:12:24.091Z,14.40
2018-04-15T00:17:28.673Z,14.40
2018-04-15T00:22:31.770Z,14.30
2018-04-15T00:27:35.633Z,14.30
2018-04-15T00:32:38.717Z,14.20
2018-04-15T00:37:42.639Z,14.20
2018-04-15T00:42:46.527Z,14.00
2018-04-15T00:47:49.614Z,14.00
2018-04-15T00:52:52.711Z,14.00
2018-04-15T00:57:56.573Z,14.00
2018-04-15T01:02:59.662Z,14.00
2018-04-15T01:08:02.750Z,14.00
2018-04-15T01:13:05.862Z,13.90
2018-04-15T01:18:09.709Z,13.90
2018-04-15T01:23:13.577Z,13.90
2018-04-15T01:28:16.677Z,13.90
2018-04-15T01:33:20.525Z,13.80
2018-04-15T01:38:23.626Z,13.80
2018-04-15T01:48:31.934Z,13.70
2018-04-15T01:53:35.014Z,13.70
2018-04-15T01:58:38.098Z,13.70
2018-04-15T02:03:42.642Z,13.70
2018-04-15T02:08:45.727Z,13.70
2018-04-15T02:18:54.030Z,13.60
2018-04-15T02:23:57.125Z,13.50
2018-04-15T02:29:00.234Z,13.40
2018-04-15T02:34:03.314Z,13.50
2018-04-15T02:39:06.423Z,13.50
2018-04-15T02:44:10.323Z,13.20
2018-04-15T02:49:13.474Z,13.00
2018-04-15T02:54:16.573Z,12.90
2018-04-15T03:04:24.106Z,12.90
2018-04-15T03:09:27.971Z,12.90
2018-04-15T03:14:31.832Z,12.90
2018-04-15T03:19:35.318Z,12.90
2018-04-15T03:24:39.554Z,12.80
2018-04-15T03:29:43.046Z,12.80
2018-04-15T03:39:52.834Z,12.90
2018-04-15T03:44:56.685Z,12.90
2018-04-15T03:49:59.775Z,12.80
2018-04-15T03:55:02.886Z,12.70
2018-04-15T04:00:05.978Z,12.70
2018-04-15T04:05:10.189Z,12.70
2018-04-15T04:10:13.313Z,12.80
2018-04-15T04:20:38.681Z,12.70
2018-04-15T04:25:57.155Z,12.80
2018-04-15T04:31:01.017Z,12.80
2018-04-15T04:36:04.157Z,12.80
2018-04-15T04:41:08.848Z,12.80
2018-04-15T04:46:13.070Z,12.90
2018-04-15T04:51:16.930Z,12.90
2018-04-15T04:56:20.031Z,12.90
2018-04-15T05:01:23.105Z,12.80
2018-04-15T05:06:26.979Z,12.90
2018-04-15T05:11:30.065Z,12.90
2018-04-15T05:16:33.153Z,12.90
2018-04-15T05:21:36.261Z,12.90
2018-04-15T05:26:39.360Z,12.80
2018-04-15T05:31:43.947Z,12.70
2018-04-15T05:36:47.031Z,12.60
2018-04-15T05:41:50.123Z,12.70
2018-04-15T05:46:53.602Z,12.70
2018-04-15T05:51:56.681Z,12.60
2018-04-15T05:57:00.177Z,12.60
2018-04-15T06:02:03.291Z,12.60
2018-04-15T06:07:07.144Z,12.60
2018-04-15T06:12:10.249Z,12.60
2018-04-15T06:17:13.331Z,12.50
2018-04-15T06:22:17.193Z,12.60
2018-04-15T06:27:20.282Z,12.60
2018-04-15T06:32:23.397Z,12.60
2018-04-15T06:37:26.481Z,12.60
2018-04-15T06:42:30.717Z,12.80
2018-04-15T06:47:33.808Z,12.90
2018-04-15T06:57:42.848Z,13.00
2018-04-15T07:02:45.937Z,13.10
2018-04-15T07:07:49.021Z,13.10
2018-04-15T07:17:58.045Z,14.60
2018-04-15T07:23:01.131Z,15.80
2018-04-15T07:28:04.602Z,17.00
2018-04-15T07:33:07.699Z,16.40
2018-04-15T07:38:12.474Z,15.00
2018-04-15T07:43:16.344Z,14.90
2018-04-15T07:53:24.657Z,16.70
2018-04-15T07:58:27.756Z,18.30
2018-04-15T08:08:35.249Z,20.60
2018-04-15T08:13:38.334Z,21.10
2018-04-15T08:18:41.821Z,21.00
2018-04-15T08:23:45.668Z,21.20
2018-04-15T08:28:49.511Z,21.10
2018-04-15T08:38:57.038Z,22.10
2018-04-15T08:49:04.567Z,22.60
2018-04-15T08:54:07.641Z,22.70
2018-04-15T08:59:10.730Z,22.70
2018-04-15T09:04:13.807Z,22.40
2018-04-15T09:09:18.406Z,21.10
2018-04-15T09:14:23.742Z,20.90
2018-04-15T09:19:26.840Z,21.40
2018-04-15T09:24:29.918Z,22.10
2018-04-15T09:29:33.011Z,22.80
2018-04-15T09:34:37.590Z,23.00
2018-04-15T09:39:40.668Z,24.20
2018-04-15T09:44:43.777Z,24.00
2018-04-15T09:49:47.999Z,24.40
2018-04-15T09:59:57.018Z,23.70
2018-04-15T10:10:04.552Z,22.70
2018-04-15T10:25:16.909Z,22.00
2018-04-15T10:30:21.141Z,21.30
2018-04-15T10:35:24.989Z,21.40
2018-04-15T10:40:28.091Z,21.10
2018-04-15T10:45:31.172Z,20.80
2018-04-15T10:50:35.036Z,20.40
2018-04-15T10:55:38.505Z,19.80
2018-04-15T11:05:47.161Z,19.70
2018-04-15T11:10:51.010Z,20.10
2018-04-15T11:15:55.221Z,20.40
2018-04-15T11:20:58.354Z,19.90
2018-04-15T11:26:02.223Z,20.20
2018-04-15T11:31:06.455Z,20.20
2018-04-15T11:36:10.318Z,19.90
2018-04-15T11:46:17.855Z,19.40
2018-04-15T11:51:21.347Z,19.30
2018-04-15T11:56:24.431Z,19.70
2018-04-15T12:01:27.894Z,19.90
2018-04-15T12:06:30.974Z,20.00
2018-04-15T12:16:39.994Z,20.00
2018-04-15T12:21:43.085Z,20.10
2018-04-15T12:26:46.223Z,20.10
2018-04-15T12:31:49.255Z,20.00
2018-04-15T12:36:52.738Z,19.80
2018-04-15T12:41:57.325Z,19.70
2018-04-15T12:47:00.422Z,19.70
2018-04-15T12:57:08.714Z,20.10
2018-04-15T13:02:12.561Z,19.90
2018-04-15T13:07:15.657Z,19.90
2018-04-15T13:12:18.740Z,20.00
2018-04-15T13:17:22.577Z,20.00
2018-04-15T13:22:25.670Z,20.00
2018-04-15T13:27:29.513Z,20.00
2018-04-15T13:32:33.725Z,20.00
2018-04-15T13:37:37.573Z,20.00
2018-04-15T13:42:41.418Z,20.00
2018-04-15T13:47:45.642Z,19.90
2018-04-15T13:52:48.747Z,19.80
2018-04-15T13:57:52.590Z,19.70
2018-04-15T14:02:55.666Z,19.80
2018-04-15T14:07:58.743Z,19.90
2018-04-15T14:13:02.595Z,20.10
2018-04-15T14:18:06.821Z,20.20
2018-04-15T14:23:10.294Z,20.30
2018-04-15T14:28:14.886Z,20.30
2018-04-15T14:33:17.973Z,20.30
2018-04-15T14:38:21.059Z,20.30
2018-04-15T14:53:33.413Z,20.20
2018-04-15T14:58:36.493Z,20.30
2018-04-15T15:03:40.335Z,20.20
2018-04-15T15:08:43.426Z,20.10
2018-04-15T15:13:46.510Z,20.10
2018-04-15T15:18:50.743Z,20.10
2018-04-15T15:23:54.590Z,20.10
2018-04-15T15:28:57.682Z,20.20
2018-04-15T15:39:06.801Z,20.10
2018-04-15T15:44:09.890Z,20.20
2018-04-15T15:49:13.363Z,20.20
2018-04-15T15:54:16.459Z,20.10
2018-04-15T15:59:19.542Z,20.00
2018-04-15T16:04:24.153Z,20.00
2018-04-15T16:09:28.003Z,19.70
2018-04-15T16:14:31.094Z,19.70
2018-04-15T16:19:34.179Z,19.70
2018-04-15T16:29:42.136Z,19.60
2018-04-15T16:34:46.370Z,19.50
2018-04-15T16:39:50.960Z,19.50
2018-04-15T16:44:55.169Z,19.40
2018-04-15T16:55:03.470Z,19.30
2018-04-15T17:00:08.207Z,19.20
2018-04-15T17:05:11.210Z,19.20
2018-04-15T17:10:14.289Z,19.10
2018-04-15T17:15:17.365Z,19.00
2018-04-15T17:20:21.219Z,18.80
2018-04-15T17:30:25.536Z,18.40
2018-04-15T17:35:29.374Z,18.30
2018-04-15T17:40:32.446Z,18.20
2018-04-15T17:45:35.522Z,18.10
2018-04-15T17:50:38.994Z,18.00
2018-04-15T18:00:47.269Z,17.80
2018-04-15T18:05:50.342Z,17.70
2018-04-15T18:10:54.553Z,17.50
2018-04-15T18:15:58.398Z,17.30
2018-04-15T18:21:01.512Z,17.10
2018-04-15T18:26:04.595Z,16.90
2018-04-15T18:31:08.098Z,16.70
2018-04-15T18:36:12.738Z,16.50
2018-04-15T18:46:21.019Z,16.10
2018-04-15T18:51:24.486Z,15.90
2018-04-15T18:56:28.326Z,15.70
2018-04-15T19:01:31.414Z,15.60
2018-04-15T19:16:44.486Z,15.00
2018-04-15T19:21:49.191Z,14.80
2018-04-15T19:26:57.952Z,14.60
2018-04-15T19:32:01.856Z,14.30
2018-04-15T19:37:05.822Z,14.20
2018-04-15T19:42:09.389Z,14.00
2018-04-15T19:47:12.627Z,13.90
2018-04-15T19:52:16.572Z,13.80
2018-04-15T19:57:19.715Z,13.70
2018-04-15T20:02:22.959Z,13.60
2018-04-15T20:07:26.150Z,13.60
2018-04-15T20:12:29.284Z,13.40
2018-04-15T20:17:33.211Z,13.50
2018-04-15T20:22:37.150Z,13.40
2018-04-15T20:27:42.449Z,13.40
2018-04-15T20:32:45.527Z,13.30
2018-04-15T20:37:48.796Z,13.10
2018-04-15T20:42:52.047Z,13.10
2018-04-15T20:53:00.163Z,13.10
2018-04-15T20:58:04.025Z,13.00
2018-04-15T21:03:07.267Z,13.00
2018-04-15T21:08:10.411Z,12.90
2018-04-15T21:13:14.502Z,12.90
2018-04-15T21:18:17.639Z,12.90
2018-04-15T21:23:20.821Z,12.90
2018-04-15T21:28:24.093Z,12.90
2018-04-15T21:33:28.060Z,12.90
2018-04-15T21:38:31.611Z,12.90
2018-04-15T21:43:35.189Z,12.90
2018-04-15T21:48:38.354Z,12.80
2018-04-15T21:53:42.266Z,12.80
2018-04-15T21:58:45.399Z,12.80
2018-04-15T22:03:49.279Z,12.80
2018-04-15T22:08:52.374Z,12.80
2018-04-15T22:13:55.482Z,12.70
2018-04-15T22:18:59.707Z,12.60
2018-04-15T22:24:03.715Z,12.60
2018-04-15T22:34:11.433Z,12.60
2018-04-15T22:39:14.620Z,12.60
2018-04-15T22:44:17.859Z,12.50
2018-04-15T22:49:22.919Z,12.30
2018-04-15T22:54:26.074Z,12.30
2018-04-15T22:59:29.297Z,12.30
2018-04-15T23:04:32.480Z,12.20
2018-04-15T23:09:35.621Z,12.20
2018-04-15T23:14:38.831Z,12.10
2018-04-15T23:19:42.845Z,12.00
2018-04-15T23:24:46.069Z,11.90
2018-04-15T23:29:49.279Z,11.80
2018-04-15T23:34:52.465Z,11.80
2018-04-15T23:39:55.746Z,11.90
2018-04-15T23:50:04.126Z,11.90
2018-04-15T23:55:08.464Z,11.80
